createdAt,value
2023-05-06T00:01:24.130Z,99369.22
2023-05-06T00:03:50.929Z,99375.94
2023-05-06T00:06:17.536Z,99374.88
2023-05-06T00:08:44.125Z,99372.34
2023-05-06T00:11:10.637Z,99374.81
2023-05-06T00:13:37.878Z,99373.47
2023-05-06T00:16:04.605Z,99375.38
2023-05-06T00:18:31.034Z,99370.97
2023-05-06T00:20:57.588Z,99363.81
2023-05-06T00:23:24.042Z,99362.34
2023-05-06T00:25:50.436Z,99367.13
2023-05-06T00:28:16.896Z,99366.59
2023-05-06T00:30:43.347Z,99364.34
2023-05-06T00:33:09.930Z,99366.19
2023-05-06T00:35:36.482Z,99366.97
2023-05-06T00:38:11.314Z,99375.88
2023-05-06T00:40:38.000Z,99366.88
2023-05-06T00:43:04.456Z,99368.91
2023-05-06T00:45:31.147Z,99363.78
2023-05-06T00:47:58.274Z,99358.88
2023-05-06T00:50:25.528Z,99357.28
2023-05-06T00:52:52.045Z,99353.59
2023-05-06T00:55:18.523Z,99350.59
2023-05-06T00:57:44.981Z,99353.34
2023-05-06T01:00:11.740Z,99354.84
2023-05-06T01:02:46.237Z,99356.09
2023-05-06T01:05:13.601Z,99352.00
2023-05-06T01:07:45.976Z,99346.81
2023-05-06T01:10:45.587Z,99344.03
2023-05-06T01:13:20.668Z,99341.72
2023-05-06T01:15:53.154Z,99342.25
2023-05-06T01:18:22.484Z,99340.22
2023-05-06T01:20:51.611Z,99342.53
2023-05-06T01:23:18.989Z,99351.66
2023-05-06T01:25:45.612Z,99343.91
2023-05-06T01:28:12.715Z,99343.44
2023-05-06T01:30:59.587Z,99341.13
2023-05-06T01:33:46.786Z,99345.88
2023-05-06T01:36:23.880Z,99340.38
2023-05-06T01:39:18.954Z,99333.72
2023-05-06T01:41:48.338Z,99339.53
2023-05-06T01:44:15.408Z,99345.63
2023-05-06T01:46:42.326Z,99343.66
2023-05-06T01:49:11.603Z,99337.78
2023-05-06T01:51:38.163Z,99335.72
2023-05-06T01:54:05.365Z,99343.78
2023-05-06T01:56:32.033Z,99336.31
2023-05-06T01:58:59.755Z,99337.78
2023-05-06T02:01:26.485Z,99344.25
2023-05-06T02:03:53.193Z,99341.63
2023-05-06T02:06:19.885Z,99346.28
2023-05-06T02:08:46.485Z,99341.78
2023-05-06T02:11:12.966Z,99346.03
2023-05-06T02:13:39.380Z,99340.22
2023-05-06T02:16:05.977Z,99336.94
2023-05-06T02:18:32.454Z,99336.38
2023-05-06T02:20:58.928Z,99337.91
2023-05-06T02:23:25.401Z,99329.84
2023-05-06T02:25:52.042Z,99341.56
2023-05-06T02:28:18.585Z,99340.50
2023-05-06T02:30:45.193Z,99340.63
2023-05-06T02:33:11.687Z,99330.19
2023-05-06T02:35:38.134Z,99330.78
2023-05-06T02:38:04.562Z,99325.28
2023-05-06T02:40:31.031Z,99332.81
2023-05-06T02:42:57.539Z,99318.81
2023-05-06T02:45:24.023Z,99323.59
2023-05-06T02:47:50.557Z,99324.50
2023-05-06T02:50:17.153Z,99324.00
2023-05-06T02:52:43.620Z,99325.13
2023-05-06T02:55:10.487Z,99324.09
2023-05-06T02:57:37.115Z,99323.19
2023-05-06T03:00:03.919Z,99328.22
2023-05-06T03:02:30.566Z,99328.97
2023-05-06T03:04:56.999Z,99326.16
2023-05-06T03:07:23.453Z,99323.00
2023-05-06T03:09:49.879Z,99322.44
2023-05-06T03:12:16.442Z,99328.78
2023-05-06T03:14:42.832Z,99322.72
2023-05-06T03:17:09.290Z,99320.75
2023-05-06T03:19:35.703Z,99320.00
2023-05-06T03:22:02.121Z,99323.50
2023-05-06T03:24:28.570Z,99326.06
2023-05-06T03:26:54.987Z,99320.31
2023-05-06T03:29:21.419Z,99321.72
2023-05-06T03:31:51.361Z,99322.69
2023-05-06T03:34:17.842Z,99321.72
2023-05-06T03:36:45.399Z,99327.50
2023-05-06T03:39:12.129Z,99330.91
2023-05-06T03:41:38.535Z,99332.69
2023-05-06T03:44:05.196Z,99328.34
2023-05-06T03:46:32.723Z,99325.63
2023-05-06T03:49:00.623Z,99335.03
2023-05-06T03:51:27.575Z,99333.41
2023-05-06T03:53:54.975Z,99329.75
2023-05-06T03:56:22.157Z,99334.56
2023-05-06T03:58:48.609Z,99339.56
2023-05-06T04:01:15.087Z,99341.94
2023-05-06T04:03:41.632Z,99347.56
2023-05-06T04:06:08.148Z,99346.09
2023-05-06T04:08:34.826Z,99344.03
2023-05-06T04:11:08.222Z,99350.28
2023-05-06T04:13:35.005Z,99350.28
2023-05-06T04:16:01.603Z,99353.56
2023-05-06T04:18:28.192Z,99350.28
2023-05-06T04:20:54.681Z,99352.44
2023-05-06T04:23:21.637Z,99347.63
2023-05-06T04:25:51.248Z,99349.38
2023-05-06T04:28:17.792Z,99347.31
2023-05-06T04:30:45.385Z,99358.34
2023-05-06T04:33:12.360Z,99359.94
2023-05-06T04:35:39.996Z,99360.78
2023-05-06T04:38:06.512Z,99364.91
2023-05-06T04:40:36.492Z,99369.41
2023-05-06T04:43:03.019Z,99378.34
2023-05-06T04:45:29.809Z,99366.22
2023-05-06T04:47:56.428Z,99376.34
2023-05-06T04:50:22.970Z,99368.25
2023-05-06T04:52:49.372Z,99366.34
2023-05-06T04:55:15.796Z,99369.63
2023-05-06T04:57:42.193Z,99375.63
2023-05-06T05:00:10.307Z,99371.16
2023-05-06T05:02:37.147Z,99375.38
2023-05-06T05:05:03.764Z,99383.16
2023-05-06T05:07:30.400Z,99388.59
2023-05-06T05:09:56.938Z,99393.72
2023-05-06T05:12:23.380Z,99400.59
2023-05-06T05:14:49.812Z,99392.56
2023-05-06T05:17:16.386Z,99391.06
2023-05-06T05:19:42.966Z,99401.34
2023-05-06T05:22:09.414Z,99400.31
2023-05-06T05:24:35.934Z,99402.78
2023-05-06T05:27:02.573Z,99398.84
2023-05-06T05:29:29.041Z,99402.72
2023-05-06T05:31:55.521Z,99401.19
2023-05-06T05:34:21.988Z,99406.91
2023-05-06T05:36:48.460Z,99408.00
2023-05-06T05:39:14.912Z,99408.63
2023-05-06T05:41:41.334Z,99409.03
2023-05-06T05:44:07.843Z,99409.06
2023-05-06T05:46:34.352Z,99408.53
2023-05-06T05:49:01.138Z,99411.69
2023-05-06T05:51:27.550Z,99420.50
2023-05-06T05:53:54.004Z,99412.00
2023-05-06T05:56:20.679Z,99412.94
2023-05-06T05:58:47.432Z,99409.88
2023-05-06T06:01:14.545Z,99407.31
2023-05-06T06:03:41.813Z,99409.97
2023-05-06T06:06:09.232Z,99410.09
2023-05-06T06:08:36.117Z,99412.13
2023-05-06T06:11:04.418Z,99422.97
2023-05-06T06:13:31.041Z,99414.41
2023-05-06T06:15:57.651Z,99423.97
2023-05-06T06:18:24.312Z,99422.03
2023-05-06T06:20:53.150Z,99422.56
2023-05-06T06:23:20.823Z,99420.19
2023-05-06T06:25:47.308Z,99420.13
2023-05-06T06:28:13.806Z,99419.03
2023-05-06T06:30:41.135Z,99425.41
2023-05-06T06:33:07.976Z,99425.25
2023-05-06T06:35:34.862Z,99429.84
2023-05-06T06:38:01.527Z,99427.91
2023-05-06T06:40:28.189Z,99427.78
2023-05-06T06:42:54.620Z,99428.13
2023-05-06T06:45:21.234Z,99428.97
2023-05-06T06:47:47.711Z,99431.16
2023-05-06T06:50:14.258Z,99420.75
2023-05-06T06:52:40.688Z,99420.50
2023-05-06T06:55:07.855Z,99421.75
2023-05-06T06:57:34.358Z,99426.53
2023-05-06T07:00:00.788Z,99425.66
2023-05-06T07:02:27.239Z,99428.91
2023-05-06T07:04:53.826Z,99434.59
2023-05-06T07:07:20.298Z,99440.41
2023-05-06T07:09:46.746Z,99436.75
2023-05-06T07:12:13.215Z,99434.06
2023-05-06T07:14:39.659Z,99436.72
2023-05-06T07:17:06.146Z,99434.44
2023-05-06T07:19:32.607Z,99435.56
2023-05-06T07:21:59.184Z,99436.91
2023-05-06T07:24:25.617Z,99442.41
2023-05-06T07:26:52.242Z,99435.50
2023-05-06T07:29:18.868Z,99425.03
2023-05-06T07:31:45.425Z,99428.72
2023-05-06T07:34:11.873Z,99433.56
2023-05-06T07:36:43.282Z,99437.91
2023-05-06T07:39:10.850Z,99434.44
2023-05-06T07:41:37.271Z,99427.19
2023-05-06T07:44:03.966Z,99436.56
2023-05-06T07:46:30.662Z,99429.53
2023-05-06T07:48:57.220Z,99427.94
2023-05-06T07:51:23.752Z,99424.47
2023-05-06T07:53:50.420Z,99427.06
2023-05-06T07:56:17.951Z,99419.88
2023-05-06T07:58:44.381Z,99416.66
2023-05-06T08:01:11.040Z,99417.78
2023-05-06T08:03:37.646Z,99415.19
2023-05-06T08:06:04.385Z,99423.47
2023-05-06T08:08:30.853Z,99423.28
2023-05-06T08:10:58.291Z,99423.28
2023-05-06T08:13:25.880Z,99421.59
2023-05-06T08:15:52.996Z,99425.06
2023-05-06T08:18:22.951Z,99422.81
2023-05-06T08:20:49.827Z,99415.38
2023-05-06T08:23:16.294Z,99417.00
2023-05-06T08:25:43.127Z,99416.38
2023-05-06T08:28:09.604Z,99423.22
2023-05-06T08:30:36.629Z,99411.00
2023-05-06T08:33:03.170Z,99411.44
2023-05-06T08:35:29.594Z,99416.31
2023-05-06T08:37:56.039Z,99402.44
2023-05-06T08:40:23.394Z,99408.19
2023-05-06T08:42:50.312Z,99410.25
2023-05-06T08:45:17.570Z,99409.84
2023-05-06T08:47:44.114Z,99403.53
2023-05-06T08:50:12.277Z,99404.00
2023-05-06T08:52:39.475Z,99405.50
2023-05-06T08:55:07.212Z,99399.69
2023-05-06T08:57:34.421Z,99403.00
2023-05-06T09:00:01.390Z,99403.06
2023-05-06T09:02:28.331Z,99408.19
2023-05-06T09:04:56.512Z,99393.75
2023-05-06T09:07:23.998Z,99404.84
2023-05-06T09:09:51.548Z,99397.75
2023-05-06T09:12:18.421Z,99397.75
2023-05-06T09:14:45.668Z,99396.66
2023-05-06T09:17:28.475Z,99403.03
2023-05-06T09:19:59.026Z,99397.50
2023-05-06T09:22:30.064Z,99398.59
2023-05-06T09:24:57.381Z,99393.50
2023-05-06T09:27:28.658Z,99389.72
2023-05-06T09:30:06.902Z,99398.84
2023-05-06T09:32:35.238Z,99391.00
2023-05-06T09:35:02.748Z,99387.84
2023-05-06T09:37:29.443Z,99387.03
2023-05-06T09:39:57.307Z,99386.53
2023-05-06T09:42:25.383Z,99381.63
2023-05-06T09:44:54.182Z,99377.56
2023-05-06T09:47:25.515Z,99373.63
2023-05-06T09:49:56.358Z,99378.09
2023-05-06T09:52:23.232Z,99370.38
2023-05-06T09:54:51.808Z,99371.38
2023-05-06T09:57:18.510Z,99367.78
2023-05-06T09:59:45.095Z,99364.28
2023-05-06T10:02:13.305Z,99367.16
2023-05-06T10:04:41.591Z,99359.94
2023-05-06T10:07:11.559Z,99371.34
2023-05-06T10:09:40.239Z,99363.50
2023-05-06T10:12:08.411Z,99357.63
2023-05-06T10:14:36.637Z,99349.81
2023-05-06T10:17:08.532Z,99359.38
2023-05-06T10:19:35.418Z,99354.94
2023-05-06T10:22:18.197Z,99342.47
2023-05-06T10:24:50.202Z,99348.72
2023-05-06T10:27:18.421Z,99344.66
2023-05-06T10:29:45.326Z,99336.47
2023-05-06T10:32:12.341Z,99336.69
2023-05-06T10:34:44.274Z,99337.28
2023-05-06T10:37:11.562Z,99330.28
2023-05-06T10:39:42.046Z,99325.31
2023-05-06T10:42:10.876Z,99326.06
2023-05-06T10:44:59.867Z,99325.38
2023-05-06T10:47:26.786Z,99318.50
2023-05-06T10:50:18.074Z,99318.56
2023-05-06T10:52:45.489Z,99328.16
2023-05-06T10:55:33.117Z,99317.78
2023-05-06T10:58:06.405Z,99315.22
2023-05-06T11:00:34.459Z,99313.50
2023-05-06T11:03:02.184Z,99304.72
2023-05-06T11:05:28.852Z,99311.84
2023-05-06T11:08:09.039Z,99311.72
2023-05-06T11:10:36.312Z,99309.84
2023-05-06T11:13:23.519Z,99303.88
2023-05-06T11:15:51.953Z,99303.09
2023-05-06T11:18:24.397Z,99293.59
2023-05-06T11:20:51.549Z,99288.34
2023-05-06T11:23:21.046Z,99284.84
2023-05-06T11:25:47.695Z,99283.91
2023-05-06T11:28:15.043Z,99289.16
2023-05-06T11:30:43.071Z,99277.00
2023-05-06T11:33:15.988Z,99283.81
2023-05-06T11:35:42.487Z,99286.22
2023-05-06T11:38:09.207Z,99285.38
2023-05-06T11:40:35.729Z,99286.25
2023-05-06T11:43:15.792Z,99284.69
2023-05-06T11:45:48.752Z,99288.22
2023-05-06T11:48:15.857Z,99281.22
2023-05-06T11:50:47.745Z,99282.19
2023-05-06T11:53:16.503Z,99278.72
2023-05-06T11:55:44.846Z,99281.16
2023-05-06T11:58:40.604Z,99273.47
2023-05-06T12:01:07.157Z,99281.31
2023-05-06T12:03:33.802Z,99280.38
2023-05-06T12:06:01.025Z,99275.25
2023-05-06T12:08:30.584Z,99277.84
2023-05-06T12:11:05.169Z,99271.78
2023-05-06T12:13:31.863Z,99267.44
2023-05-06T12:15:59.784Z,99258.72
2023-05-06T12:18:26.773Z,99266.44
2023-05-06T12:20:54.677Z,99267.44
2023-05-06T12:23:22.039Z,99275.28
2023-05-06T12:26:01.616Z,99274.25
2023-05-06T12:28:28.082Z,99274.34
2023-05-06T12:30:54.514Z,99270.03
2023-05-06T12:33:21.340Z,99269.19
2023-05-06T12:35:47.886Z,99267.41
2023-05-06T12:38:15.693Z,99274.41
2023-05-06T12:40:43.452Z,99267.44
2023-05-06T12:43:10.910Z,99263.06
2023-05-06T12:45:40.749Z,99262.16
2023-05-06T12:48:07.477Z,99252.56
2023-05-06T12:50:39.021Z,99250.84
2023-05-06T12:53:06.489Z,99250.84
2023-05-06T12:55:34.088Z,99249.13
2023-05-06T12:58:00.654Z,99249.97
2023-05-06T13:00:27.161Z,99250.88
2023-05-06T13:02:53.710Z,99248.22
2023-05-06T13:05:20.244Z,99250.84
2023-05-06T13:07:46.673Z,99248.22
2023-05-06T13:10:13.545Z,99254.25
2023-05-06T13:12:40.470Z,99244.75
2023-05-06T13:15:08.591Z,99237.78
2023-05-06T13:17:35.137Z,99229.94
2023-05-06T13:20:03.299Z,99229.94
2023-05-06T13:22:33.772Z,99229.91
2023-05-06T13:25:07.177Z,99227.31
2023-05-06T13:27:33.595Z,99226.44
2023-05-06T13:30:00.034Z,99230.81
2023-05-06T13:32:27.127Z,99219.44
2023-05-06T13:34:53.522Z,99221.22
2023-05-06T13:37:19.994Z,99217.72
2023-05-06T13:39:46.653Z,99213.34
2023-05-06T13:42:13.808Z,99211.63
2023-05-06T13:44:40.553Z,99215.06
2023-05-06T13:47:07.480Z,99209.88
2023-05-06T13:49:33.889Z,99215.13
2023-05-06T13:52:00.276Z,99203.72
2023-05-06T13:54:26.764Z,99211.56
2023-05-06T13:56:53.180Z,99198.53
2023-05-06T13:59:19.574Z,99198.53
2023-05-06T14:01:47.374Z,99195.91
2023-05-06T14:04:13.848Z,99200.28
2023-05-06T14:06:40.585Z,99192.44
2023-05-06T14:09:08.153Z,99195.03
2023-05-06T14:11:34.624Z,99194.13
2023-05-06T14:14:01.625Z,99187.97
2023-05-06T14:16:28.226Z,99179.16
2023-05-06T14:18:54.709Z,99176.47
2023-05-06T14:21:21.688Z,99177.31
2023-05-06T14:23:48.084Z,99175.72
2023-05-06T14:26:14.475Z,99170.34
2023-05-06T14:28:40.916Z,99176.59
2023-05-06T14:31:07.733Z,99170.50
2023-05-06T14:33:34.153Z,99176.66
2023-05-06T14:36:03.199Z,99175.81
2023-05-06T14:38:29.660Z,99171.47
2023-05-06T14:40:57.486Z,99169.69
2023-05-06T14:43:25.220Z,99166.97
2023-05-06T14:45:52.052Z,99157.34
2023-05-06T14:48:18.448Z,99160.00
2023-05-06T14:50:44.899Z,99152.09
2023-05-06T14:53:11.480Z,99158.97
2023-05-06T14:55:37.985Z,99160.72
2023-05-06T14:58:04.520Z,99165.91
2023-05-06T15:00:31.065Z,99155.50
2023-05-06T15:02:59.183Z,99159.00
2023-05-06T15:05:25.875Z,99149.56
2023-05-06T15:07:52.604Z,99154.00
2023-05-06T15:10:19.153Z,99155.72
2023-05-06T15:12:45.602Z,99147.81
2023-05-06T15:15:12.250Z,99148.59
2023-05-06T15:17:39.454Z,99148.75
2023-05-06T15:20:06.958Z,99147.78
2023-05-06T15:22:33.388Z,99146.88
2023-05-06T15:24:59.843Z,99146.84
2023-05-06T15:27:26.294Z,99152.13
2023-05-06T15:29:52.742Z,99153.00
2023-05-06T15:32:19.215Z,99151.34
2023-05-06T15:34:45.737Z,99157.44
2023-05-06T15:37:13.044Z,99155.66
2023-05-06T15:39:39.538Z,99150.34
2023-05-06T15:42:06.272Z,99148.63
2023-05-06T15:44:33.770Z,99153.94
2023-05-06T15:47:00.575Z,99157.41
2023-05-06T15:49:51.119Z,99158.28
2023-05-06T15:52:13.370Z,99163.50
2023-05-06T15:54:40.994Z,99150.41
2023-05-06T15:57:07.751Z,99156.56
2023-05-06T15:59:34.253Z,99152.97
2023-05-06T16:02:26.111Z,99152.16
2023-05-06T16:04:47.343Z,99151.25
2023-05-06T16:07:14.016Z,99140.03
2023-05-06T16:09:40.538Z,99145.19
2023-05-06T16:12:07.076Z,99139.06
2023-05-06T16:14:33.561Z,99145.19
2023-05-06T16:17:00.043Z,99136.34
2023-05-06T16:19:26.542Z,99140.66
2023-05-06T16:21:53.320Z,99134.53
2023-05-06T16:24:21.276Z,99134.53
2023-05-06T16:26:47.729Z,99137.16
2023-05-06T16:29:17.247Z,99137.16
2023-05-06T16:31:43.667Z,99138.06
2023-05-06T16:34:10.408Z,99130.22
2023-05-06T16:36:36.858Z,99140.66
2023-05-06T16:39:03.289Z,99139.03
2023-05-06T16:41:30.004Z,99129.50
2023-05-06T16:43:56.569Z,99138.19
2023-05-06T16:46:24.403Z,99130.38
2023-05-06T16:48:52.118Z,99134.78
2023-05-06T16:51:19.175Z,99133.09
2023-05-06T16:53:45.626Z,99133.06
2023-05-06T16:56:12.976Z,99127.81
2023-05-06T16:58:39.402Z,99136.53
2023-05-06T17:01:08.043Z,99129.53
2023-05-06T17:03:37.741Z,99123.44
2023-05-06T17:06:04.370Z,99126.97
2023-05-06T17:10:59.659Z,99127.84
2023-05-06T17:13:26.091Z,99117.41
2023-05-06T17:15:52.495Z,99120.88
2023-05-06T17:18:18.962Z,99120.88
2023-05-06T17:20:55.082Z,99116.53
2023-05-06T17:23:23.325Z,99126.09
2023-05-06T17:25:49.716Z,99120.91
2023-05-06T17:28:17.383Z,99123.53
2023-05-06T17:30:45.095Z,99124.41
2023-05-06T17:33:11.611Z,99121.81
2023-05-06T17:35:38.153Z,99122.66
2023-05-06T17:38:04.786Z,99118.34
2023-05-06T17:40:31.213Z,99117.47
2023-05-06T17:42:57.684Z,99119.19
2023-05-06T17:45:25.292Z,99118.34
2023-05-06T17:47:52.120Z,99113.09
2023-05-06T17:50:18.756Z,99110.50
2023-05-06T17:52:46.341Z,99112.25
2023-05-06T17:55:17.049Z,99111.34
2023-05-06T17:57:44.044Z,99110.47
2023-05-06T18:00:11.452Z,99106.97
2023-05-06T18:02:38.182Z,99113.06
2023-05-06T18:05:05.030Z,99117.44
2023-05-06T18:07:31.490Z,99110.47
2023-05-06T18:09:57.923Z,99112.22
2023-05-06T18:12:24.312Z,99117.41
2023-05-06T18:14:51.028Z,99115.69
2023-05-06T18:17:17.531Z,99116.53
2023-05-06T18:19:43.990Z,99113.91
2023-05-06T18:22:10.420Z,99121.75
2023-05-06T18:24:38.139Z,99126.09
2023-05-06T18:27:04.734Z,99125.22
2023-05-06T18:29:33.034Z,99120.84
2023-05-06T18:32:00.261Z,99126.06
2023-05-06T18:34:26.761Z,99128.63
2023-05-06T18:36:53.261Z,99121.66
2023-05-06T18:39:22.863Z,99125.06
2023-05-06T18:41:49.315Z,99124.19
2023-05-06T18:44:15.763Z,99116.31
2023-05-06T18:46:42.192Z,99116.19
2023-05-06T18:49:08.682Z,99125.63
2023-05-06T18:51:35.152Z,99134.34
2023-05-06T18:54:01.625Z,99128.19
2023-05-06T18:56:28.097Z,99130.69
2023-05-06T18:58:54.588Z,99139.50
2023-05-06T19:01:21.321Z,99142.03
2023-05-06T19:03:47.821Z,99145.41
2023-05-06T19:06:14.299Z,99148.81
2023-05-06T19:08:40.862Z,99147.84
2023-05-06T19:11:14.463Z,99153.06
2023-05-06T19:13:42.129Z,99161.69
2023-05-06T19:16:08.629Z,99159.00
2023-05-06T19:18:35.135Z,99155.28
2023-05-06T19:21:01.569Z,99162.28
2023-05-06T19:23:28.048Z,99159.50
2023-05-06T19:25:54.530Z,99156.75
2023-05-06T19:28:21.107Z,99163.56
2023-05-06T19:30:48.519Z,99163.66
2023-05-06T19:33:15.054Z,99166.06
2023-05-06T19:35:41.538Z,99164.31
2023-05-06T19:38:08.517Z,99161.56
2023-05-06T19:40:35.949Z,99161.56
2023-05-06T19:43:03.861Z,99170.09
2023-05-06T19:45:31.427Z,99158.88
2023-05-06T19:48:03.842Z,99164.78
2023-05-06T19:50:33.385Z,99163.78
2023-05-06T19:52:59.780Z,99162.94
2023-05-06T19:55:26.409Z,99161.88
2023-05-06T19:57:55.694Z,99171.28
2023-05-06T20:00:22.160Z,99175.75
2023-05-06T20:02:48.649Z,99168.72
2023-05-06T20:05:15.217Z,99178.00
2023-05-06T20:07:42.076Z,99178.19
2023-05-06T20:10:09.888Z,99173.81
2023-05-06T20:12:36.326Z,99172.09
2023-05-06T20:15:03.708Z,99180.63
2023-05-06T20:17:30.325Z,99175.28
2023-05-06T20:20:00.201Z,99182.84
2023-05-06T20:22:27.982Z,99185.13
2023-05-06T20:25:17.333Z,99180.03
2023-05-06T20:27:44.465Z,99183.59
2023-05-06T20:30:11.064Z,99186.19
2023-05-06T20:32:38.866Z,99179.81
2023-05-06T20:35:06.186Z,99182.50
2023-05-06T20:37:39.155Z,99180.00
2023-05-06T20:40:07.755Z,99182.72
2023-05-06T20:42:34.479Z,99184.47
2023-05-06T20:45:01.506Z,99187.44
2023-05-06T20:47:27.956Z,99189.06
2023-05-06T20:49:55.145Z,99195.13
2023-05-06T20:52:21.928Z,99188.06
2023-05-06T20:54:48.668Z,99183.03
2023-05-06T20:57:16.186Z,99171.75
2023-05-06T20:59:42.908Z,99177.69
2023-05-06T21:02:09.568Z,99174.16
2023-05-06T21:04:36.533Z,99169.69
2023-05-06T21:07:03.032Z,99182.50
2023-05-06T21:09:29.493Z,99173.94
2023-05-06T21:11:56.184Z,99178.09
2023-05-06T21:14:24.744Z,99175.38
2023-05-06T21:16:51.953Z,99174.34
2023-05-06T21:19:18.857Z,99173.56
2023-05-06T21:21:45.882Z,99180.38
2023-05-06T21:24:12.953Z,99177.06
2023-05-06T21:26:39.914Z,99173.59
2023-05-06T21:29:06.413Z,99172.38
2023-05-06T21:31:32.920Z,99178.88
2023-05-06T21:33:59.580Z,99172.59
2023-05-06T21:36:26.173Z,99175.34
2023-05-06T21:39:01.691Z,99169.50
2023-05-06T21:41:28.201Z,99175.13
2023-05-06T21:43:54.908Z,99169.28
2023-05-06T21:46:21.401Z,99167.63
2023-05-06T21:48:47.901Z,99166.06
2023-05-06T21:51:14.297Z,99161.66
2023-05-06T21:53:41.815Z,99159.84
2023-05-06T21:56:08.237Z,99165.16
2023-05-06T21:58:34.626Z,99167.72
2023-05-06T22:01:01.058Z,99167.47
2023-05-06T22:03:27.929Z,99168.94
2023-05-06T22:05:54.369Z,99169.69
2023-05-06T22:08:20.789Z,99161.75
2023-05-06T22:10:47.339Z,99166.88
2023-05-06T22:13:13.775Z,99165.94
2023-05-06T22:15:40.607Z,99167.53
2023-05-06T22:18:08.650Z,99165.50
2023-05-06T22:20:36.511Z,99166.63
2023-05-06T22:23:03.664Z,99168.31
2023-05-06T22:25:30.380Z,99178.41
2023-05-06T22:27:56.796Z,99169.56
2023-05-06T22:30:23.220Z,99163.00
2023-05-06T22:32:49.991Z,99165.38
2023-05-06T22:35:16.831Z,99163.94
2023-05-06T22:37:43.291Z,99162.50
2023-05-06T22:40:10.749Z,99169.78
2023-05-06T22:42:37.599Z,99165.50
2023-05-06T22:45:05.334Z,99169.78
2023-05-06T22:47:31.962Z,99163.94
2023-05-06T22:49:58.438Z,99171.56
2023-05-06T22:52:25.433Z,99170.13
2023-05-06T22:54:52.181Z,99172.56
2023-05-06T22:57:23.216Z,99174.22
2023-05-06T22:59:49.720Z,99168.84
2023-05-06T23:02:16.314Z,99172.91
2023-05-06T23:04:42.752Z,99167.47
2023-05-06T23:07:09.258Z,99168.22
2023-05-06T23:09:35.876Z,99171.50
2023-05-06T23:12:02.704Z,99161.97
2023-05-06T23:14:29.144Z,99161.88
2023-05-06T23:16:55.770Z,99160.53
2023-05-06T23:19:22.300Z,99155.56
2023-05-06T23:21:48.759Z,99149.31
2023-05-06T23:24:15.478Z,99150.28
2023-05-06T23:26:41.888Z,99157.06
2023-05-06T23:29:08.413Z,99156.16
2023-05-06T23:31:34.934Z,99160.47
2023-05-06T23:34:01.467Z,99155.06
2023-05-06T23:36:27.893Z,99148.91
2023-05-06T23:38:55.058Z,99146.69
2023-05-06T23:41:21.446Z,99149.88
2023-05-06T23:43:47.868Z,99156.78
2023-05-06T23:46:14.387Z,99154.19
2023-05-06T23:48:40.800Z,99151.13
2023-05-06T23:51:07.196Z,99147.00
2023-05-06T23:53:33.870Z,99145.31
2023-05-06T23:56:00.378Z,99147.69
2023-05-06T23:58:26.760Z,99158.13
